sensor_id;sensor_type;location;lat;lon;timestamp;temperature;humidity
42833;DHT22;64089;51.478;5.692;2023-02-28T00:00:33;-0.60;99.90
42833;DHT22;64089;51.478;5.692;2023-02-28T00:02:59;-0.70;99.90
42833;DHT22;64089;51.478;5.692;2023-02-28T00:05:26;-0.80;99.90
42833;DHT22;64089;51.478;5.692;2023-02-28T00:07:52;-0.90;99.90
42833;DHT22;64089;51.478;5.692;2023-02-28T00:10:31;-0.90;99.90
42833;DHT22;64089;51.478;5.692;2023-02-28T00:13:01;-1.00;99.90
42833;DHT22;64089;51.478;5.692;2023-02-28T00:15:28;-0.90;99.90
42833;DHT22;64089;51.478;5.692;2023-02-28T00:17:53;-1.00;99.90
42833;DHT22;64089;51.478;5.692;2023-02-28T00:20:23;-1.10;99.90
42833;DHT22;64089;51.478;5.692;2023-02-28T00:22:51;-1.00;99.90
42833;DHT22;64089;51.478;5.692;2023-02-28T00:25:19;-0.90;99.90
42833;DHT22;64089;51.478;5.692;2023-02-28T00:27:45;-1.00;99.90
42833;DHT22;64089;51.478;5.692;2023-02-28T00:30:14;-0.90;99.90
42833;DHT22;64089;51.478;5.692;2023-02-28T00:32:40;-1.00;99.90
42833;DHT22;64089;51.478;5.692;2023-02-28T00:35:06;-0.90;99.90
42833;DHT22;64089;51.478;5.692;2023-02-28T00:37:32;-0.90;99.90
42833;DHT22;64089;51.478;5.692;2023-02-28T00:39:57;-1.00;99.90
42833;DHT22;64089;51.478;5.692;2023-02-28T00:42:24;-1.00;99.90
42833;DHT22;64089;51.478;5.692;2023-02-28T00:44:50;-1.00;99.90
42833;DHT22;64089;51.478;5.692;2023-02-28T00:47:15;-1.00;99.90
42833;DHT22;64089;51.478;5.692;2023-02-28T00:49:41;-1.00;99.90
42833;DHT22;64089;51.478;5.692;2023-02-28T00:52:07;-1.00;99.90
42833;DHT22;64089;51.478;5.692;2023-02-28T00:54:32;-1.10;99.90
42833;DHT22;64089;51.478;5.692;2023-02-28T00:56:59;-1.10;99.90
42833;DHT22;64089;51.478;5.692;2023-02-28T00:59:25;-1.20;99.90
42833;DHT22;64089;51.478;5.692;2023-02-28T01:01:51;-1.30;99.90
42833;DHT22;64089;51.478;5.692;2023-02-28T01:04:17;-1.30;99.90
42833;DHT22;64089;51.478;5.692;2023-02-28T01:06:42;-1.30;99.90
42833;DHT22;64089;51.478;5.692;2023-02-28T01:09:08;-1.30;99.90
42833;DHT22;64089;51.478;5.692;2023-02-28T01:11:34;-1.30;99.90
42833;DHT22;64089;51.478;5.692;2023-02-28T01:14:01;-1.30;99.90
42833;DHT22;64089;51.478;5.692;2023-02-28T01:16:27;-1.40;99.90
42833;DHT22;64089;51.478;5.692;2023-02-28T01:18:52;-1.40;99.90
42833;DHT22;64089;51.478;5.692;2023-02-28T01:21:20;-1.40;99.90
42833;DHT22;64089;51.478;5.692;2023-02-28T01:23:46;-1.50;99.90
42833;DHT22;64089;51.478;5.692;2023-02-28T01:26:15;-1.50;99.90
42833;DHT22;64089;51.478;5.692;2023-02-28T01:28:41;-1.50;99.90
42833;DHT22;64089;51.478;5.692;2023-02-28T01:31:07;-1.50;99.90
42833;DHT22;64089;51.478;5.692;2023-02-28T01:33:33;-1.50;99.90
42833;DHT22;64089;51.478;5.692;2023-02-28T01:36:10;-1.60;99.90
42833;DHT22;64089;51.478;5.692;2023-02-28T01:38:36;-1.60;99.90
42833;DHT22;64089;51.478;5.692;2023-02-28T01:41:02;-1.60;99.90
42833;DHT22;64089;51.478;5.692;2023-02-28T01:43:52;-1.60;99.90
42833;DHT22;64089;51.478;5.692;2023-02-28T01:46:18;-1.60;99.90
42833;DHT22;64089;51.478;5.692;2023-02-28T01:48:54;-1.60;99.90
42833;DHT22;64089;51.478;5.692;2023-02-28T01:51:28;-1.50;99.90
42833;DHT22;64089;51.478;5.692;2023-02-28T01:53:59;-1.60;99.90
42833;DHT22;64089;51.478;5.692;2023-02-28T01:56:30;-1.60;99.90
42833;DHT22;64089;51.478;5.692;2023-02-28T01:58:57;-1.60;99.90
42833;DHT22;64089;51.478;5.692;2023-02-28T02:01:25;-1.60;99.90
42833;DHT22;64089;51.478;5.692;2023-02-28T02:03:54;-1.60;99.90
42833;DHT22;64089;51.478;5.692;2023-02-28T02:06:26;-1.60;99.90
42833;DHT22;64089;51.478;5.692;2023-02-28T02:08:53;-1.60;99.90
42833;DHT22;64089;51.478;5.692;2023-02-28T02:11:20;-1.50;99.90
42833;DHT22;64089;51.478;5.692;2023-02-28T02:16:48;-1.40;99.90
42833;DHT22;64089;51.478;5.692;2023-02-28T02:22:12;-1.50;99.90
42833;DHT22;64089;51.478;5.692;2023-02-28T02:27:47;-1.50;99.90
42833;DHT22;64089;51.478;5.692;2023-02-28T02:38:24;-1.70;99.90
42833;DHT22;64089;51.478;5.692;2023-02-28T02:46:34;-1.80;99.90
42833;DHT22;64089;51.478;5.692;2023-02-28T02:49:07;-1.80;99.90
42833;DHT22;64089;51.478;5.692;2023-02-28T02:51:35;-1.70;99.90
42833;DHT22;64089;51.478;5.692;2023-02-28T02:54:21;-1.70;99.90
42833;DHT22;64089;51.478;5.692;2023-02-28T02:56:48;-1.50;99.90
42833;DHT22;64089;51.478;5.692;2023-02-28T02:59:22;-1.50;99.90
42833;DHT22;64089;51.478;5.692;2023-02-28T03:01:56;-1.50;99.90
42833;DHT22;64089;51.478;5.692;2023-02-28T03:04:25;-1.40;99.90
42833;DHT22;64089;51.478;5.692;2023-02-28T03:06:53;-1.30;99.90
42833;DHT22;64089;51.478;5.692;2023-02-28T03:09:23;-1.20;99.90
42833;DHT22;64089;51.478;5.692;2023-02-28T03:11:49;-1.20;99.90
42833;DHT22;64089;51.478;5.692;2023-02-28T03:14:30;-1.10;99.90
42833;DHT22;64089;51.478;5.692;2023-02-28T03:17:28;-1.10;99.90
42833;DHT22;64089;51.478;5.692;2023-02-28T03:23:27;-1.00;99.90
42833;DHT22;64089;51.478;5.692;2023-02-28T03:28:42;-0.80;99.90
42833;DHT22;64089;51.478;5.692;2023-02-28T03:33:40;-0.60;99.90
42833;DHT22;64089;51.478;5.692;2023-02-28T03:36:13;-0.60;99.90
42833;DHT22;64089;51.478;5.692;2023-02-28T03:38:49;-0.60;99.90
42833;DHT22;64089;51.478;5.692;2023-02-28T03:41:24;-0.50;99.90
42833;DHT22;64089;51.478;5.692;2023-02-28T03:43:56;-0.50;99.90
42833;DHT22;64089;51.478;5.692;2023-02-28T03:46:27;-0.40;99.90
42833;DHT22;64089;51.478;5.692;2023-02-28T03:49:03;-0.40;99.90
42833;DHT22;64089;51.478;5.692;2023-02-28T03:51:33;-0.40;99.90
42833;DHT22;64089;51.478;5.692;2023-02-28T03:54:09;-0.30;99.90
42833;DHT22;64089;51.478;5.692;2023-02-28T03:56:43;-0.30;99.90
42833;DHT22;64089;51.478;5.692;2023-02-28T03:59:16;-0.20;99.90
42833;DHT22;64089;51.478;5.692;2023-02-28T04:01:46;-0.20;99.90
42833;DHT22;64089;51.478;5.692;2023-02-28T04:04:13;-0.20;99.90
42833;DHT22;64089;51.478;5.692;2023-02-28T04:06:40;-0.10;99.90
42833;DHT22;64089;51.478;5.692;2023-02-28T04:09:07;-0.10;99.90
42833;DHT22;64089;51.478;5.692;2023-02-28T04:14:04;0.00;99.90
42833;DHT22;64089;51.478;5.692;2023-02-28T04:16:30;0.00;99.90
42833;DHT22;64089;51.478;5.692;2023-02-28T04:18:56;0.10;99.90
42833;DHT22;64089;51.478;5.692;2023-02-28T04:21:31;0.20;99.90
42833;DHT22;64089;51.478;5.692;2023-02-28T04:23:57;0.30;99.90
42833;DHT22;64089;51.478;5.692;2023-02-28T04:26:33;0.30;99.90
42833;DHT22;64089;51.478;5.692;2023-02-28T04:29:00;0.30;99.90
42833;DHT22;64089;51.478;5.692;2023-02-28T04:31:26;0.30;99.90
42833;DHT22;64089;51.478;5.692;2023-02-28T04:33:51;0.30;99.90
42833;DHT22;64089;51.478;5.692;2023-02-28T04:36:17;0.30;99.90
42833;DHT22;64089;51.478;5.692;2023-02-28T04:38:43;0.30;99.90
42833;DHT22;64089;51.478;5.692;2023-02-28T04:41:09;0.30;99.90
42833;DHT22;64089;51.478;5.692;2023-02-28T04:43:35;0.30;99.90
42833;DHT22;64089;51.478;5.692;2023-02-28T04:46:02;0.40;99.90
42833;DHT22;64089;51.478;5.692;2023-02-28T04:48:29;0.40;99.90
42833;DHT22;64089;51.478;5.692;2023-02-28T04:50:59;0.40;99.90
42833;DHT22;64089;51.478;5.692;2023-02-28T04:53:25;0.40;99.90
42833;DHT22;64089;51.478;5.692;2023-02-28T04:55:50;0.40;99.90
42833;DHT22;64089;51.478;5.692;2023-02-28T04:58:16;0.40;99.90
42833;DHT22;64089;51.478;5.692;2023-02-28T05:00:41;0.40;99.90
42833;DHT22;64089;51.478;5.692;2023-02-28T05:03:07;0.30;99.90
42833;DHT22;64089;51.478;5.692;2023-02-28T05:05:32;0.20;99.90
42833;DHT22;64089;51.478;5.692;2023-02-28T05:07:58;0.20;99.90
42833;DHT22;64089;51.478;5.692;2023-02-28T05:10:24;0.20;99.90
42833;DHT22;64089;51.478;5.692;2023-02-28T05:12:50;0.20;99.90
42833;DHT22;64089;51.478;5.692;2023-02-28T05:15:21;0.20;99.90
42833;DHT22;64089;51.478;5.692;2023-02-28T05:17:46;0.20;99.90
42833;DHT22;64089;51.478;5.692;2023-02-28T05:20:12;0.20;99.90
42833;DHT22;64089;51.478;5.692;2023-02-28T05:22:39;0.20;99.90
42833;DHT22;64089;51.478;5.692;2023-02-28T05:25:06;0.20;99.90
42833;DHT22;64089;51.478;5.692;2023-02-28T05:27:32;0.20;99.90
42833;DHT22;64089;51.478;5.692;2023-02-28T05:29:58;0.20;99.90
42833;DHT22;64089;51.478;5.692;2023-02-28T05:32:24;0.20;99.90
42833;DHT22;64089;51.478;5.692;2023-02-28T05:34:50;0.20;99.90
42833;DHT22;64089;51.478;5.692;2023-02-28T05:37:16;0.30;99.90
42833;DHT22;64089;51.478;5.692;2023-02-28T05:39:42;0.30;99.90
42833;DHT22;64089;51.478;5.692;2023-02-28T05:42:07;0.30;99.90
42833;DHT22;64089;51.478;5.692;2023-02-28T05:44:34;0.30;99.90
42833;DHT22;64089;51.478;5.692;2023-02-28T05:47:00;0.30;99.90
42833;DHT22;64089;51.478;5.692;2023-02-28T05:49:26;0.20;99.90
42833;DHT22;64089;51.478;5.692;2023-02-28T05:51:51;0.20;99.90
42833;DHT22;64089;51.478;5.692;2023-02-28T05:54:17;0.20;99.90
42833;DHT22;64089;51.478;5.692;2023-02-28T05:56:43;0.20;99.90
42833;DHT22;64089;51.478;5.692;2023-02-28T05:59:11;0.10;99.90
42833;DHT22;64089;51.478;5.692;2023-02-28T06:01:43;0.10;99.90
42833;DHT22;64089;51.478;5.692;2023-02-28T06:04:14;0.10;99.90
42833;DHT22;64089;51.478;5.692;2023-02-28T06:06:46;0.10;99.90
42833;DHT22;64089;51.478;5.692;2023-02-28T06:09:12;0.10;99.90
42833;DHT22;64089;51.478;5.692;2023-02-28T06:11:37;0.10;99.90
42833;DHT22;64089;51.478;5.692;2023-02-28T06:14:03;0.10;99.90
42833;DHT22;64089;51.478;5.692;2023-02-28T06:16:31;0.10;99.90
42833;DHT22;64089;51.478;5.692;2023-02-28T06:18:58;0.10;99.90
42833;DHT22;64089;51.478;5.692;2023-02-28T06:21:24;0.10;99.90
42833;DHT22;64089;51.478;5.692;2023-02-28T06:23:50;0.20;99.90
42833;DHT22;64089;51.478;5.692;2023-02-28T06:26:16;0.10;99.90
42833;DHT22;64089;51.478;5.692;2023-02-28T06:28:41;0.10;99.90
42833;DHT22;64089;51.478;5.692;2023-02-28T06:31:12;0.10;99.90
42833;DHT22;64089;51.478;5.692;2023-02-28T06:33:39;0.20;99.90
42833;DHT22;64089;51.478;5.692;2023-02-28T06:36:05;0.10;99.90
42833;DHT22;64089;51.478;5.692;2023-02-28T06:38:32;0.10;99.90
42833;DHT22;64089;51.478;5.692;2023-02-28T06:40:59;0.00;99.90
42833;DHT22;64089;51.478;5.692;2023-02-28T06:43:27;0.00;99.90
42833;DHT22;64089;51.478;5.692;2023-02-28T06:45:58;-0.10;99.90
42833;DHT22;64089;51.478;5.692;2023-02-28T06:48:25;-0.10;99.90
42833;DHT22;64089;51.478;5.692;2023-02-28T06:50:51;-0.20;99.90
42833;DHT22;64089;51.478;5.692;2023-02-28T06:53:16;-0.20;99.90
42833;DHT22;64089;51.478;5.692;2023-02-28T06:55:42;-0.10;99.90
42833;DHT22;64089;51.478;5.692;2023-02-28T06:58:08;-0.20;99.90
42833;DHT22;64089;51.478;5.692;2023-02-28T07:00:40;-0.10;99.90
42833;DHT22;64089;51.478;5.692;2023-02-28T07:03:06;-0.20;99.90
42833;DHT22;64089;51.478;5.692;2023-02-28T07:05:34;-0.20;99.90
42833;DHT22;64089;51.478;5.692;2023-02-28T07:07:59;-0.20;99.90
42833;DHT22;64089;51.478;5.692;2023-02-28T07:10:25;-0.20;99.90
42833;DHT22;64089;51.478;5.692;2023-02-28T07:12:50;-0.10;99.90
42833;DHT22;64089;51.478;5.692;2023-02-28T07:15:16;0.00;99.90
42833;DHT22;64089;51.478;5.692;2023-02-28T07:17:42;0.10;99.90
42833;DHT22;64089;51.478;5.692;2023-02-28T07:20:08;0.20;99.90
42833;DHT22;64089;51.478;5.692;2023-02-28T07:22:34;0.20;99.90
42833;DHT22;64089;51.478;5.692;2023-02-28T07:24:59;0.30;99.90
42833;DHT22;64089;51.478;5.692;2023-02-28T07:27:25;0.40;99.90
42833;DHT22;64089;51.478;5.692;2023-02-28T07:29:51;0.30;99.90
42833;DHT22;64089;51.478;5.692;2023-02-28T07:32:17;0.30;99.90
42833;DHT22;64089;51.478;5.692;2023-02-28T07:34:44;0.40;99.90
42833;DHT22;64089;51.478;5.692;2023-02-28T07:37:10;0.40;99.90
42833;DHT22;64089;51.478;5.692;2023-02-28T07:39:35;0.40;99.90
42833;DHT22;64089;51.478;5.692;2023-02-28T07:42:05;0.40;99.90
42833;DHT22;64089;51.478;5.692;2023-02-28T07:44:31;0.40;99.90
42833;DHT22;64089;51.478;5.692;2023-02-28T07:46:57;0.50;99.90
42833;DHT22;64089;51.478;5.692;2023-02-28T07:49:23;0.50;99.90
42833;DHT22;64089;51.478;5.692;2023-02-28T07:51:49;0.50;99.90
42833;DHT22;64089;51.478;5.692;2023-02-28T07:54:14;0.60;99.90
42833;DHT22;64089;51.478;5.692;2023-02-28T07:56:40;0.60;99.90
42833;DHT22;64089;51.478;5.692;2023-02-28T07:59:05;0.50;99.90
42833;DHT22;64089;51.478;5.692;2023-02-28T08:01:31;0.70;99.90
42833;DHT22;64089;51.478;5.692;2023-02-28T08:03:57;0.70;99.90
42833;DHT22;64089;51.478;5.692;2023-02-28T08:06:24;0.70;99.90
42833;DHT22;64089;51.478;5.692;2023-02-28T08:08:49;0.80;99.90
42833;DHT22;64089;51.478;5.692;2023-02-28T08:11:16;1.00;99.90
42833;DHT22;64089;51.478;5.692;2023-02-28T08:13:43;1.00;99.90
42833;DHT22;64089;51.478;5.692;2023-02-28T08:16:10;1.00;99.90
42833;DHT22;64089;51.478;5.692;2023-02-28T08:18:36;1.00;99.80
42833;DHT22;64089;51.478;5.692;2023-02-28T08:21:09;1.10;99.90
42833;DHT22;64089;51.478;5.692;2023-02-28T08:23:35;1.10;99.60
42833;DHT22;64089;51.478;5.692;2023-02-28T08:26:01;1.20;99.80
42833;DHT22;64089;51.478;5.692;2023-02-28T08:28:26;1.20;99.60
42833;DHT22;64089;51.478;5.692;2023-02-28T08:30:52;1.20;99.80
42833;DHT22;64089;51.478;5.692;2023-02-28T08:33:18;1.30;99.90
42833;DHT22;64089;51.478;5.692;2023-02-28T08:35:44;1.30;99.80
42833;DHT22;64089;51.478;5.692;2023-02-28T08:38:09;1.40;99.90
42833;DHT22;64089;51.478;5.692;2023-02-28T08:40:35;1.40;99.80
42833;DHT22;64089;51.478;5.692;2023-02-28T08:43:00;1.40;99.50
42833;DHT22;64089;51.478;5.692;2023-02-28T08:45:26;1.50;99.30
42833;DHT22;64089;51.478;5.692;2023-02-28T08:47:53;1.50;98.60
42833;DHT22;64089;51.478;5.692;2023-02-28T08:50:19;1.60;98.60
42833;DHT22;64089;51.478;5.692;2023-02-28T08:52:45;1.70;98.10
42833;DHT22;64089;51.478;5.692;2023-02-28T08:55:10;1.70;97.90
42833;DHT22;64089;51.478;5.692;2023-02-28T08:57:36;1.80;99.50
42833;DHT22;64089;51.478;5.692;2023-02-28T09:00:03;2.00;98.80
42833;DHT22;64089;51.478;5.692;2023-02-28T09:02:30;2.10;98.00
42833;DHT22;64089;51.478;5.692;2023-02-28T09:04:59;2.20;96.80
42833;DHT22;64089;51.478;5.692;2023-02-28T09:07:25;2.20;96.00
42833;DHT22;64089;51.478;5.692;2023-02-28T09:09:51;2.20;95.80
42833;DHT22;64089;51.478;5.692;2023-02-28T09:12:24;2.30;96.00
42833;DHT22;64089;51.478;5.692;2023-02-28T09:14:50;2.30;95.60
42833;DHT22;64089;51.478;5.692;2023-02-28T09:17:16;2.30;95.40
42833;DHT22;64089;51.478;5.692;2023-02-28T09:19:42;2.40;94.30
42833;DHT22;64089;51.478;5.692;2023-02-28T09:22:09;2.40;93.40
42833;DHT22;64089;51.478;5.692;2023-02-28T09:24:36;2.50;92.60
42833;DHT22;64089;51.478;5.692;2023-02-28T09:27:02;2.50;92.60
42833;DHT22;64089;51.478;5.692;2023-02-28T09:29:28;2.70;94.60
42833;DHT22;64089;51.478;5.692;2023-02-28T09:31:53;2.80;93.60
42833;DHT22;64089;51.478;5.692;2023-02-28T09:34:21;2.90;92.70
42833;DHT22;64089;51.478;5.692;2023-02-28T09:36:47;2.90;91.20
42833;DHT22;64089;51.478;5.692;2023-02-28T09:39:13;2.90;90.80
42833;DHT22;64089;51.478;5.692;2023-02-28T09:41:45;2.80;90.40
42833;DHT22;64089;51.478;5.692;2023-02-28T09:44:37;2.80;90.30
42833;DHT22;64089;51.478;5.692;2023-02-28T09:47:38;2.90;90.80
42833;DHT22;64089;51.478;5.692;2023-02-28T09:50:36;3.00;90.50
42833;DHT22;64089;51.478;5.692;2023-02-28T09:53:11;3.00;90.40
42833;DHT22;64089;51.478;5.692;2023-02-28T09:55:45;3.10;90.20
42833;DHT22;64089;51.478;5.692;2023-02-28T09:58:23;3.10;87.10
42833;DHT22;64089;51.478;5.692;2023-02-28T10:01:12;3.10;86.50
42833;DHT22;64089;51.478;5.692;2023-02-28T10:03:57;3.10;87.70
42833;DHT22;64089;51.478;5.692;2023-02-28T10:06:29;3.10;85.70
42833;DHT22;64089;51.478;5.692;2023-02-28T10:09:03;3.20;85.90
42833;DHT22;64089;51.478;5.692;2023-02-28T10:11:32;3.20;86.50
42833;DHT22;64089;51.478;5.692;2023-02-28T10:14:04;3.30;86.60
42833;DHT22;64089;51.478;5.692;2023-02-28T10:16:39;3.30;85.80
42833;DHT22;64089;51.478;5.692;2023-02-28T10:19:13;3.30;84.80
42833;DHT22;64089;51.478;5.692;2023-02-28T10:21:55;3.40;85.50
42833;DHT22;64089;51.478;5.692;2023-02-28T10:27:22;3.50;84.90
42833;DHT22;64089;51.478;5.692;2023-02-28T10:29:57;3.60;84.80
42833;DHT22;64089;51.478;5.692;2023-02-28T10:32:32;3.60;85.20
42833;DHT22;64089;51.478;5.692;2023-02-28T10:35:18;3.70;85.00
42833;DHT22;64089;51.478;5.692;2023-02-28T10:37:50;3.70;85.00
42833;DHT22;64089;51.478;5.692;2023-02-28T10:43:18;3.80;83.20
42833;DHT22;64089;51.478;5.692;2023-02-28T10:48:47;3.90;84.20
42833;DHT22;64089;51.478;5.692;2023-02-28T10:51:16;4.00;84.00
42833;DHT22;64089;51.478;5.692;2023-02-28T11:01:23;4.00;82.30
42833;DHT22;64089;51.478;5.692;2023-02-28T11:03:51;4.10;82.30
42833;DHT22;64089;51.478;5.692;2023-02-28T11:06:22;4.20;83.50
42833;DHT22;64089;51.478;5.692;2023-02-28T11:08:49;4.20;83.10
42833;DHT22;64089;51.478;5.692;2023-02-28T11:11:16;4.10;81.40
42833;DHT22;64089;51.478;5.692;2023-02-28T11:13:43;4.10;82.30
42833;DHT22;64089;51.478;5.692;2023-02-28T11:16:11;4.20;83.40
42833;DHT22;64089;51.478;5.692;2023-02-28T11:18:52;4.30;82.50
42833;DHT22;64089;51.478;5.692;2023-02-28T11:21:37;4.40;82.90
42833;DHT22;64089;51.478;5.692;2023-02-28T11:26:43;4.40;83.20
42833;DHT22;64089;51.478;5.692;2023-02-28T11:31:37;4.60;83.30
42833;DHT22;64089;51.478;5.692;2023-02-28T11:34:23;4.60;84.00
42833;DHT22;64089;51.478;5.692;2023-02-28T11:36:49;4.70;83.40
42833;DHT22;64089;51.478;5.692;2023-02-28T11:39:17;4.80;83.10
42833;DHT22;64089;51.478;5.692;2023-02-28T11:47:48;4.90;86.40
42833;DHT22;64089;51.478;5.692;2023-02-28T11:50:26;5.10;90.20
42833;DHT22;64089;51.478;5.692;2023-02-28T11:53:01;5.20;85.40
42833;DHT22;64089;51.478;5.692;2023-02-28T11:55:37;5.20;85.60
42833;DHT22;64089;51.478;5.692;2023-02-28T12:09:13;5.20;82.30
42833;DHT22;64089;51.478;5.692;2023-02-28T12:11:51;5.20;83.30
42833;DHT22;64089;51.478;5.692;2023-02-28T12:22:31;5.50;84.20
42833;DHT22;64089;51.478;5.692;2023-02-28T12:27:37;5.50;84.50
42833;DHT22;64089;51.478;5.692;2023-02-28T12:32:50;5.80;82.20
42833;DHT22;64089;51.478;5.692;2023-02-28T12:35:23;5.60;81.80
42833;DHT22;64089;51.478;5.692;2023-02-28T12:38:06;5.60;81.50
42833;DHT22;64089;51.478;5.692;2023-02-28T12:40:50;5.50;80.70
42833;DHT22;64089;51.478;5.692;2023-02-28T12:43:18;5.50;80.60
42833;DHT22;64089;51.478;5.692;2023-02-28T12:45:52;5.50;80.50
42833;DHT22;64089;51.478;5.692;2023-02-28T12:48:27;5.60;80.80
42833;DHT22;64089;51.478;5.692;2023-02-28T12:50:56;5.50;81.20
42833;DHT22;64089;51.478;5.692;2023-02-28T12:53:28;5.50;82.20
42833;DHT22;64089;51.478;5.692;2023-02-28T13:10:04;6.00;81.00
42833;DHT22;64089;51.478;5.692;2023-02-28T13:12:32;6.00;81.30
42833;DHT22;64089;51.478;5.692;2023-02-28T13:15:18;6.10;81.20
42833;DHT22;64089;51.478;5.692;2023-02-28T13:17:52;6.00;80.60
42833;DHT22;64089;51.478;5.692;2023-02-28T13:20:24;6.00;79.50
42833;DHT22;64089;51.478;5.692;2023-02-28T13:22:52;6.10;81.40
42833;DHT22;64089;51.478;5.692;2023-02-28T13:28:09;5.90;79.60
42833;DHT22;64089;51.478;5.692;2023-02-28T13:38:50;6.50;81.10
42833;DHT22;64089;51.478;5.692;2023-02-28T13:44:05;6.40;79.70
42833;DHT22;64089;51.478;5.692;2023-02-28T13:46:32;6.40;80.60
42833;DHT22;64089;51.478;5.692;2023-02-28T13:58:02;6.30;81.40
42833;DHT22;64089;51.478;5.692;2023-02-28T14:03:26;6.60;81.40
42833;DHT22;64089;51.478;5.692;2023-02-28T14:06:23;6.70;82.20
42833;DHT22;64089;51.478;5.692;2023-02-28T14:09:17;6.80;81.30
42833;DHT22;64089;51.478;5.692;2023-02-28T14:11:44;6.70;80.40
42833;DHT22;64089;51.478;5.692;2023-02-28T14:16:59;6.50;80.90
42833;DHT22;64089;51.478;5.692;2023-02-28T14:19:29;6.70;81.40
42833;DHT22;64089;51.478;5.692;2023-02-28T14:22:08;6.70;80.70
42833;DHT22;64089;51.478;5.692;2023-02-28T14:24:59;6.60;79.80
42833;DHT22;64089;51.478;5.692;2023-02-28T14:28:04;6.60;81.80
42833;DHT22;64089;51.478;5.692;2023-02-28T14:30:52;6.90;80.70
42833;DHT22;64089;51.478;5.692;2023-02-28T14:36:31;6.80;79.70
42833;DHT22;64089;51.478;5.692;2023-02-28T14:39:00;6.90;81.20
42833;DHT22;64089;51.478;5.692;2023-02-28T14:41:38;6.80;79.00
42833;DHT22;64089;51.478;5.692;2023-02-28T14:44:19;6.60;79.50
42833;DHT22;64089;51.478;5.692;2023-02-28T14:47:01;6.50;79.80
42833;DHT22;64089;51.478;5.692;2023-02-28T14:49:43;6.50;80.40
42833;DHT22;64089;51.478;5.692;2023-02-28T14:52:21;6.70;80.60
42833;DHT22;64089;51.478;5.692;2023-02-28T14:54:56;6.70;79.80
42833;DHT22;64089;51.478;5.692;2023-02-28T14:57:25;6.60;79.30
42833;DHT22;64089;51.478;5.692;2023-02-28T15:00:27;6.70;80.30
42833;DHT22;64089;51.478;5.692;2023-02-28T15:02:54;6.70;79.50
42833;DHT22;64089;51.478;5.692;2023-02-28T15:08:04;6.80;80.60
42833;DHT22;64089;51.478;5.692;2023-02-28T15:10:30;6.70;80.00
42833;DHT22;64089;51.478;5.692;2023-02-28T15:13:07;6.60;79.20
42833;DHT22;64089;51.478;5.692;2023-02-28T15:17:59;6.80;81.70
42833;DHT22;64089;51.478;5.692;2023-02-28T15:20:26;6.90;80.40
42833;DHT22;64089;51.478;5.692;2023-02-28T15:22:55;6.80;79.20
42833;DHT22;64089;51.478;5.692;2023-02-28T15:25:22;6.80;79.80
42833;DHT22;64089;51.478;5.692;2023-02-28T15:27:51;6.70;79.60
42833;DHT22;64089;51.478;5.692;2023-02-28T15:35:37;6.80;80.70
42833;DHT22;64089;51.478;5.692;2023-02-28T15:40:57;6.90;81.00
42833;DHT22;64089;51.478;5.692;2023-02-28T15:43:37;6.80;80.70
42833;DHT22;64089;51.478;5.692;2023-02-28T15:46:10;6.60;80.10
42833;DHT22;64089;51.478;5.692;2023-02-28T15:48:43;6.50;80.50
42833;DHT22;64089;51.478;5.692;2023-02-28T15:51:20;6.50;80.90
42833;DHT22;64089;51.478;5.692;2023-02-28T15:53:57;6.50;81.20
42833;DHT22;64089;51.478;5.692;2023-02-28T15:56:32;6.60;81.80
42833;DHT22;64089;51.478;5.692;2023-02-28T15:59:02;6.50;81.20
42833;DHT22;64089;51.478;5.692;2023-02-28T16:01:36;6.50;81.20
42833;DHT22;64089;51.478;5.692;2023-02-28T16:04:14;6.50;82.30
42833;DHT22;64089;51.478;5.692;2023-02-28T16:06:46;6.50;82.20
42833;DHT22;64089;51.478;5.692;2023-02-28T16:09:25;6.50;82.10
42833;DHT22;64089;51.478;5.692;2023-02-28T16:11:55;6.50;81.60
42833;DHT22;64089;51.478;5.692;2023-02-28T16:14:24;6.40;81.80
42833;DHT22;64089;51.478;5.692;2023-02-28T16:16:54;6.40;82.70
42833;DHT22;64089;51.478;5.692;2023-02-28T16:19:23;6.50;83.10
42833;DHT22;64089;51.478;5.692;2023-02-28T16:21:49;6.40;82.10
42833;DHT22;64089;51.478;5.692;2023-02-28T16:24:15;6.40;83.20
42833;DHT22;64089;51.478;5.692;2023-02-28T16:26:42;6.50;83.40
42833;DHT22;64089;51.478;5.692;2023-02-28T16:29:15;6.30;81.70
42833;DHT22;64089;51.478;5.692;2023-02-28T16:31:44;6.20;82.00
42833;DHT22;64089;51.478;5.692;2023-02-28T16:34:09;6.10;82.10
42833;DHT22;64089;51.478;5.692;2023-02-28T16:36:35;6.00;82.30
42833;DHT22;64089;51.478;5.692;2023-02-28T16:39:00;5.90;82.40
42833;DHT22;64089;51.478;5.692;2023-02-28T16:41:28;6.00;82.80
42833;DHT22;64089;51.478;5.692;2023-02-28T16:43:55;5.90;82.50
42833;DHT22;64089;51.478;5.692;2023-02-28T16:46:31;5.80;82.90
42833;DHT22;64089;51.478;5.692;2023-02-28T16:48:58;5.80;83.10
42833;DHT22;64089;51.478;5.692;2023-02-28T16:51:24;5.60;83.30
42833;DHT22;64089;51.478;5.692;2023-02-28T16:53:49;5.50;83.80
42833;DHT22;64089;51.478;5.692;2023-02-28T16:56:20;5.50;85.10
42833;DHT22;64089;51.478;5.692;2023-02-28T16:58:47;5.40;83.60
42833;DHT22;64089;51.478;5.692;2023-02-28T17:01:13;5.20;83.80
42833;DHT22;64089;51.478;5.692;2023-02-28T17:03:39;5.10;84.90
42833;DHT22;64089;51.478;5.692;2023-02-28T17:06:08;5.10;86.00
42833;DHT22;64089;51.478;5.692;2023-02-28T17:08:37;4.90;85.20
42833;DHT22;64089;51.478;5.692;2023-02-28T17:11:04;4.80;85.40
42833;DHT22;64089;51.478;5.692;2023-02-28T17:13:29;4.80;85.70
42833;DHT22;64089;51.478;5.692;2023-02-28T17:15:55;4.70;85.90
42833;DHT22;64089;51.478;5.692;2023-02-28T17:18:21;4.70;86.20
42833;DHT22;64089;51.478;5.692;2023-02-28T17:20:47;4.60;87.10
42833;DHT22;64089;51.478;5.692;2023-02-28T17:23:13;4.50;86.30
42833;DHT22;64089;51.478;5.692;2023-02-28T17:25:38;4.40;87.00
42833;DHT22;64089;51.478;5.692;2023-02-28T17:28:04;4.40;87.80
42833;DHT22;64089;51.478;5.692;2023-02-28T17:30:33;4.40;89.40
42833;DHT22;64089;51.478;5.692;2023-02-28T17:32:59;4.30;88.80
42833;DHT22;64089;51.478;5.692;2023-02-28T17:35:25;4.30;90.00
42833;DHT22;64089;51.478;5.692;2023-02-28T17:37:54;4.20;90.20
42833;DHT22;64089;51.478;5.692;2023-02-28T17:40:22;4.20;90.30
42833;DHT22;64089;51.478;5.692;2023-02-28T17:42:47;4.10;90.50
42833;DHT22;64089;51.478;5.692;2023-02-28T17:45:14;4.00;90.10
42833;DHT22;64089;51.478;5.692;2023-02-28T17:47:41;4.00;90.20
42833;DHT22;64089;51.478;5.692;2023-02-28T17:50:16;3.90;90.70
42833;DHT22;64089;51.478;5.692;2023-02-28T17:52:42;3.80;90.80
42833;DHT22;64089;51.478;5.692;2023-02-28T17:55:09;4.00;93.50
42833;DHT22;64089;51.478;5.692;2023-02-28T17:57:34;4.10;94.90
42833;DHT22;64089;51.478;5.692;2023-02-28T18:00:00;4.20;95.50
42833;DHT22;64089;51.478;5.692;2023-02-28T18:02:29;4.30;95.60
42833;DHT22;64089;51.478;5.692;2023-02-28T18:04:55;4.30;96.10
42833;DHT22;64089;51.478;5.692;2023-02-28T18:07:22;4.40;95.70
42833;DHT22;64089;51.478;5.692;2023-02-28T18:09:49;4.30;93.30
42833;DHT22;64089;51.478;5.692;2023-02-28T18:12:14;4.00;92.10
42833;DHT22;64089;51.478;5.692;2023-02-28T18:14:40;3.70;92.10
42833;DHT22;64089;51.478;5.692;2023-02-28T18:17:06;3.50;92.00
42833;DHT22;64089;51.478;5.692;2023-02-28T18:19:31;3.30;92.10
42833;DHT22;64089;51.478;5.692;2023-02-28T18:21:57;3.20;92.30